Time,TemperatureF,DewpointF,PressureIn,WindDirection,WindDirectionDegrees,WindSpeedMPH,WindSpeedGustMPH,Humidity,HourlyPrecipIn,Conditions,Clouds,dailyrainin,SoftwareType,DateUTC
2013-09-23 00:12:00,55.0,51.0,29.85,SSE,166,0.0,0.0,85,0.00,,,0.00,,2013-09-23 05:12:00,
2013-09-23 00:22:00,55.0,51.0,29.85,SSE,166,0.0,0.0,86,0.00,,,0.00,,2013-09-23 05:22:00,
2013-09-23 00:43:00,54.0,50.0,29.85,SSE,166,0.0,0.0,86,0.00,,,0.00,,2013-09-23 05:43:00,
2013-09-23 00:53:00,54.0,50.0,29.85,SSE,166,0.0,0.0,87,0.00,,,0.00,,2013-09-23 05:53:00,
2013-09-23 01:13:00,54.0,51.0,29.84,SSE,166,0.0,0.0,88,0.00,,,0.00,,2013-09-23 06:13:00,
2013-09-23 01:22:00,54.0,51.0,29.84,SSE,166,0.0,0.0,88,0.00,,,0.00,,2013-09-23 06:22:00,
2013-09-23 01:52:00,54.0,51.0,29.84,SSE,166,0.0,0.0,90,0.00,,,0.00,,2013-09-23 06:52:00,
2013-09-23 02:12:00,54.0,51.0,29.84,SSE,166,0.0,0.0,90,0.00,,,0.00,,2013-09-23 07:12:00,
2013-09-23 02:22:00,54.0,51.0,29.84,SSE,166,0.0,0.0,90,0.00,,,0.00,,2013-09-23 07:22:00,
2013-09-23 02:52:00,54.0,51.0,29.84,SSE,166,0.0,0.0,90,0.00,,,0.00,,2013-09-23 07:52:00,
2013-09-23 03:11:00,54.0,51.0,29.84,SSE,166,0.0,0.0,90,0.00,,,0.00,,2013-09-23 08:11:00,
2013-09-23 03:23:00,54.0,51.0,29.84,SSE,166,0.0,0.0,90,0.00,,,0.00,,2013-09-23 08:23:00,
2013-09-23 03:52:00,53.0,50.0,29.84,SSE,166,0.0,0.0,90,0.00,,,0.00,,2013-09-23 08:52:00,
2013-09-23 04:11:00,53.0,50.0,29.84,SSE,166,0.0,0.0,91,0.00,,,0.00,,2013-09-23 09:11:00,
2013-09-23 04:21:00,53.0,50.0,29.84,SSE,166,0.0,0.0,91,0.00,,,0.00,,2013-09-23 09:21:00,
2013-09-23 04:53:00,53.0,51.0,29.84,SSE,166,0.0,0.0,92,0.00,,,0.00,,2013-09-23 09:53:00,
2013-09-23 05:13:00,53.0,51.0,29.84,SSE,166,0.0,0.0,92,0.00,,,0.00,,2013-09-23 10:13:00,
2013-09-23 05:23:00,54.0,51.0,29.84,SSE,166,0.0,0.0,91,0.00,,,0.00,,2013-09-23 10:23:00,
2013-09-23 05:42:00,54.0,51.0,29.84,SSE,166,0.0,0.0,90,0.00,,,0.00,,2013-09-23 10:42:00,
2013-09-23 05:52:00,54.0,51.0,29.84,SSE,166,0.0,0.0,90,0.00,,,0.00,,2013-09-23 10:52:00,
2013-09-23 06:12:00,54.0,51.0,29.83,SSE,166,0.0,0.0,89,0.00,,,0.00,,2013-09-23 11:12:00,
2013-09-23 06:21:00,54.0,51.0,29.84,SSE,166,0.0,0.0,88,0.00,,,0.00,,2013-09-23 11:21:00,
2013-09-23 06:52:00,55.0,51.0,29.84,SSE,166,0.0,0.0,87,0.00,,,0.00,,2013-09-23 11:52:00,
2013-09-23 07:11:00,55.0,51.0,29.84,SSE,166,0.0,0.0,86,0.00,,,0.00,,2013-09-23 12:11:00,
2013-09-23 07:22:00,55.0,51.0,29.84,SSE,166,0.0,0.0,86,0.00,,,0.00,,2013-09-23 12:22:00,
2013-09-23 07:52:00,54.0,50.0,29.86,SSE,166,0.0,0.0,86,0.00,,,0.00,,2013-09-23 12:52:00,
2013-09-23 08:11:00,54.0,50.0,29.86,SSE,166,0.0,0.0,86,0.01,,,0.01,,2013-09-23 13:11:00,
2013-09-23 08:22:00,55.0,51.0,29.86,SSE,166,0.0,0.0,86,0.01,,,0.01,,2013-09-23 13:22:00,
2013-09-23 08:42:00,56.0,51.0,29.87,SSE,166,0.0,0.0,84,0.01,,,0.01,,2013-09-23 13:42:00,
2013-09-23 08:52:00,57.0,52.0,29.88,SSE,166,0.0,0.0,83,0.01,,,0.01,,2013-09-23 13:52:00,
2013-09-23 09:11:00,58.0,52.0,29.88,SSE,156,5.0,5.0,79,0.01,,,0.01,,2013-09-23 14:11:00,
2013-09-23 09:22:00,60.0,52.0,29.88,SSE,162,7.0,7.0,75,0.00,,,0.01,,2013-09-23 14:22:00,
2013-09-23 09:42:00,61.0,52.0,29.88,South,174,14.0,14.0,73,0.00,,,0.01,,2013-09-23 14:42:00,
2013-09-23 09:52:00,63.0,53.0,29.88,South,184,9.0,9.0,70,0.00,,,0.01,,2013-09-23 14:52:00,
2013-09-23 10:11:00,64.0,53.0,29.88,SSE,167,9.0,9.0,67,0.00,,,0.01,,2013-09-23 15:11:00,
2013-09-23 10:21:00,65.0,53.0,29.87,SSE,148,7.0,7.0,66,0.00,,,0.01,,2013-09-23 15:21:00,
2013-09-23 10:43:00,66.0,53.0,29.87,South,170,9.0,9.0,64,0.00,,,0.01,,2013-09-23 15:43:00,
2013-09-23 10:54:00,67.0,53.0,29.88,SSE,159,6.0,6.0,61,0.00,,,0.01,,2013-09-23 15:54:00,
2013-09-23 11:12:00,68.0,54.0,29.87,SSE,150,6.0,6.0,61,0.00,,,0.01,,2013-09-23 16:12:00,
2013-09-23 11:24:00,69.0,54.0,29.87,SSE,157,2.0,2.0,58,0.00,,,0.01,,2013-09-23 16:24:00,
2013-09-23 11:53:00,70.0,54.0,29.86,SSE,161,12.0,12.0,56,0.00,,,0.01,,2013-09-23 16:53:00,
2013-09-23 12:12:00,70.0,53.0,29.85,SSE,166,6.0,6.0,55,0.00,,,0.01,,2013-09-23 17:12:00,
2013-09-23 12:24:00,71.0,54.0,29.85,SSE,157,10.0,10.0,55,0.00,,,0.01,,2013-09-23 17:24:00,
2013-09-23 12:42:00,72.0,54.0,29.85,SSE,167,9.0,9.0,53,0.00,,,0.01,,2013-09-23 17:42:00,
2013-09-23 12:52:00,73.0,54.0,29.84,South,184,4.0,4.0,51,0.00,,,0.01,,2013-09-23 17:52:00,
2013-09-23 13:12:00,73.0,54.0,29.83,SSE,153,4.0,4.0,52,0.00,,,0.01,,2013-09-23 18:12:00,
2013-09-23 13:21:00,73.0,53.0,29.83,SSE,162,13.0,13.0,50,0.00,,,0.01,,2013-09-23 18:21:00,
2013-09-23 13:52:00,74.0,54.0,29.81,SSE,148,11.0,11.0,50,0.00,,,0.01,,2013-09-23 18:52:00,
2013-09-23 14:12:00,74.0,53.0,29.81,SSW,205,11.0,11.0,48,0.00,,,0.01,,2013-09-23 19:12:00,
2013-09-23 14:22:00,75.0,55.0,29.80,South,188,15.0,15.0,49,0.00,,,0.01,,2013-09-23 19:22:00,
2013-09-23 14:53:00,75.0,52.0,29.79,SSE,157,0.0,0.0,45,0.00,,,0.01,,2013-09-23 19:53:00,
2013-09-23 15:12:00,76.0,51.0,29.81,SE,128,0.0,0.0,42,0.00,,,0.01,,2013-09-23 20:12:00,
2013-09-23 15:22:00,76.0,54.0,29.80,SSE,164,10.0,10.0,46,0.00,,,0.01,,2013-09-23 20:22:00,
2013-09-23 15:52:00,77.0,49.0,29.80,SSE,167,4.0,4.0,38,0.00,,,0.01,,2013-09-23 20:52:00,
2013-09-23 16:11:00,77.0,49.0,29.77,South,179,13.0,13.0,38,0.00,,,0.01,,2013-09-23 21:11:00,
2013-09-23 16:23:00,77.0,51.0,29.79,SSE,163,10.0,10.0,41,0.00,,,0.01,,2013-09-23 21:23:00,
2013-09-23 16:44:00,77.0,49.0,29.76,South,182,1.0,1.0,38,0.00,,,0.01,,2013-09-23 21:44:00,
2013-09-23 16:54:00,77.0,51.0,29.74,SSE,165,0.0,0.0,41,0.00,,,0.01,,2013-09-23 21:54:00,
2013-09-23 17:13:00,77.0,48.0,29.77,South,170,4.0,4.0,36,0.00,,,0.01,,2013-09-23 22:13:00,
2013-09-23 17:24:00,77.0,50.0,29.77,SE,133,2.0,2.0,39,0.00,,,0.01,,2013-09-23 22:24:00,
2013-09-23 17:54:00,77.0,51.0,29.72,East,99,0.0,0.0,40,0.00,,,0.01,,2013-09-23 22:54:00,
2013-09-23 18:12:00,76.0,51.0,29.72,SSE,162,1.0,1.0,41,0.00,,,0.01,,2013-09-23 23:12:00,
2013-09-23 18:22:00,75.0,50.0,29.74,South,177,0.0,0.0,42,0.00,,,0.01,,2013-09-23 23:22:00,
2013-09-23 18:53:00,74.0,49.0,29.75,SSE,158,9.0,9.0,41,0.00,,,0.01,,2013-09-23 23:53:00,
2013-09-23 19:12:00,74.0,50.0,29.73,North,355,3.0,3.0,43,0.00,,,0.01,,2013-09-24 00:12:00,
2013-09-23 19:22:00,73.0,50.0,29.73,South,170,1.0,1.0,44,0.00,,,0.01,,2013-09-24 00:22:00,
2013-09-23 19:42:00,72.0,51.0,29.74,SSE,167,4.0,4.0,48,0.00,,,0.01,,2013-09-24 00:42:00,
2013-09-23 19:52:00,71.0,51.0,29.75,SSE,166,5.0,5.0,49,0.00,,,0.01,,2013-09-24 00:52:00,
2013-09-23 20:02:00,71.0,51.0,29.75,SSE,166,5.0,5.0,49,0.00,,,0.01,,2013-09-24 01:02:00,
2013-09-23 20:12:00,71.0,51.0,29.75,SSE,166,5.0,5.0,49,0.00,,,0.01,,2013-09-24 01:12:00,
2013-09-23 20:22:00,71.0,51.0,29.75,SSE,166,5.0,5.0,49,0.00,,,0.01,,2013-09-24 01:22:00,